Aviation Digital Data Service (ADDS)

Output produced by METARs form (0715 UTC 23 November 2014)
found at http://aviationweather.gov/adds/metars/
 
KLFT 230707Z AUTO VRB04KT 10SM OVC009 19/17 A2979 RMK AO2 CIG 007V011 T01890172